Flagg, Illinois
Current Conditions -  °F | °C
As of 9:55 PM on Wednesday 22 Oct 2014 (Local Time) from KRPJ Reporting Station
Clear Clear  
Wind Chill: 35°   Ceiling: Unl
Heat Index: 40°   Visibility: 10mi
Dew Point: 35°   Wind: 6mph
Humidity: 85%   Direction: 130°SE
Pressure: 30.27"   Gusts: NA
Location:  41.9424°N, 89.0653°W
Report Text: KRPJ 230255Z AUTO 13005KT 10SM CLR 04/02 A3027 RMK AO2 T00420018
Loading
Personal Weather Stations






























Interactive Weather Map
Tropical Storm Tracking
New forecast layout! Learn more

10-Day Weather Forecast

Advertisements
Track Severe Weather on mobile